Stevenson, WA (98648)

11:48 AM PDT on September 20, 2014 (GMT -0700)
Stabler | Change Station
CLOSE
Current Station
Personal Weather Station
Location: Carson, WA
Elevation: 1060 ft
Nearby Weather Stations

Elev 1060 ft 45.79 °N, 121.91 °W | Updated 3 minutes ago

Clear
Clear
84.6 °F
Feels Like 84 °F
N
-
Wind Variable Wind from North

Today
High -- | Low -- °F
--% Chance of Precip.
Yesterday
High -- | Low -- °F
Precip. -- in
6:51 AM 7:08 PM
Waning Crescent, 11% visible
Pressure 30.08 in
Visibility 10.0 miles
Clouds Clear
Heat Index 84 °F
Dew Point 59 °F
Humidity 42%
Rainfall 0.00 in
Snow Depth 0 in , 0 in , 2 in
UV 5 out of 12
Pollen 2.70 out of 12
Air Quality Not available.
Flu Activity Not available.
METAR KDLS 201753Z AUTO 00000KT 10SM CLR 23/12 A3009 RMK AO2 SLP186 T02330117 10233 20122 58001

More Conditions Fewer Conditions

Pressure 30.08 in
Visibility 10.0 miles
Clouds Clear
Heat Index 84 °F
Dew Point 59 °F
Humidity 42%
Rainfall 0.00 in
Snow Depth 0 in , 0 in , 2 in
UV 5 out of 12
Pollen 2.70 out of 12
Air Quality Not available.
Flu Activity Not available.
METAR KDLS 201753Z AUTO 00000KT 10SM CLR 23/12 A3009 RMK AO2 SLP186 T02330117 10233 20122 58001

More Conditions Fewer Conditions

10-Day Weather Forecast

Almanac

Astronomy

Sep. 20, 2014 Rise Set
Actual Time 6:51 AM PDT 7:08 PM PDT
Civil Twilight 6:22 AM PDT 7:38 PM PDT
Nautical Twilight 5:47 AM PDT 8:13 PM PDT
Astronomical Twilight 5:10 AM PDT 8:49 PM PDT
Moon 3:27 AM PDT 5:21 PM PDT
Length of Visible Light 13h 16m
Length of Day
12h 16m
Tomorrow will be 3m 12s shorter.
Waning Crescent, 11% of the Moon is Illuminated
Today
Waning Crescent
Sep 24
New
Oct 1
First Quarter
Oct 8
Full
Oct 15
Last Quarter

Today's Extremes

State Highs State Lows

Community

WunderPhotos

Upload Photos

1,754,923 photos uploaded!

WunderBlogs® & News

Nearby

Snow Depth

Station Depth Elevation
Lyman Lake 0 in 5900 ft
Stampede Pass 0 in 3860 ft
Quartz Peak 2 in 4700 ft
Dungeness 0 in 4100 ft
Mount Crag 0 in 4050 ft

Earthquake Activity

City Distance Mag. Time & Date
Seabeck, Washington 131 miles 4.0 3:06 AM PDT
2014-09-17
Minimum magnitude displayed is 2.5.

Coastal Water Temperatures

Place Temperature
No Stations Reporting

Nearby Weather Stations